sensor_id;sensor_type;location;lat;lon;timestamp;P1;durP1;ratioP1;P2;durP2;ratioP2
77788;SDS011;70537;44.384;0.512;2023-07-28T00:00:56;1.20;;;1.05;;
77788;SDS011;70537;44.384;0.512;2023-07-28T00:03:22;1.65;;;0.77;;
77788;SDS011;70537;44.384;0.512;2023-07-28T00:05:47;1.10;;;1.00;;
77788;SDS011;70537;44.384;0.512;2023-07-28T00:08:13;1.02;;;0.63;;
77788;SDS011;70537;44.384;0.512;2023-07-28T00:10:41;0.75;;;0.75;;
77788;SDS011;70537;44.384;0.512;2023-07-28T00:13:07;1.08;;;1.00;;
77788;SDS011;70537;44.384;0.512;2023-07-28T00:15:33;0.90;;;0.65;;
77788;SDS011;70537;44.384;0.512;2023-07-28T00:17:59;1.45;;;0.88;;
77788;SDS011;70537;44.384;0.512;2023-07-28T00:20:27;0.80;;;0.60;;
77788;SDS011;70537;44.384;0.512;2023-07-28T00:22:53;0.95;;;0.90;;
77788;SDS011;70537;44.384;0.512;2023-07-28T00:25:18;1.40;;;0.90;;
77788;SDS011;70537;44.384;0.512;2023-07-28T00:27:44;0.82;;;0.80;;
77788;SDS011;70537;44.384;0.512;2023-07-28T00:30:10;1.17;;;0.80;;
77788;SDS011;70537;44.384;0.512;2023-07-28T00:32:36;1.33;;;1.25;;
77788;SDS011;70537;44.384;0.512;2023-07-28T00:35:02;0.70;;;0.68;;
77788;SDS011;70537;44.384;0.512;2023-07-28T00:37:28;0.77;;;0.75;;
77788;SDS011;70537;44.384;0.512;2023-07-28T00:39:53;1.38;;;0.90;;
77788;SDS011;70537;44.384;0.512;2023-07-28T00:42:19;0.80;;;0.80;;
77788;SDS011;70537;44.384;0.512;2023-07-28T00:44:44;0.68;;;0.60;;
77788;SDS011;70537;44.384;0.512;2023-07-28T00:47:10;0.90;;;0.90;;
77788;SDS011;70537;44.384;0.512;2023-07-28T00:49:36;0.60;;;0.60;;
77788;SDS011;70537;44.384;0.512;2023-07-28T00:52:02;1.20;;;1.10;;
77788;SDS011;70537;44.384;0.512;2023-07-28T00:54:29;0.90;;;0.90;;
77788;SDS011;70537;44.384;0.512;2023-07-28T00:56:54;3.63;;;1.00;;
77788;SDS011;70537;44.384;0.512;2023-07-28T00:59:20;1.77;;;0.95;;
77788;SDS011;70537;44.384;0.512;2023-07-28T01:01:46;2.17;;;1.10;;
77788;SDS011;70537;44.384;0.512;2023-07-28T01:04:11;1.27;;;1.00;;
77788;SDS011;70537;44.384;0.512;2023-07-28T01:10:26;0.98;;;0.88;;
77788;SDS011;70537;44.384;0.512;2023-07-28T01:12:33;1.58;;;1.17;;
77788;SDS011;70537;44.384;0.512;2023-07-28T01:14:59;1.33;;;1.13;;
77788;SDS011;70537;44.384;0.512;2023-07-28T01:17:24;1.30;;;0.88;;
77788;SDS011;70537;44.384;0.512;2023-07-28T01:19:51;1.00;;;0.70;;
77788;SDS011;70537;44.384;0.512;2023-07-28T01:28:15;2.05;;;1.00;;
77788;SDS011;70537;44.384;0.512;2023-07-28T01:30:42;1.85;;;0.95;;
77788;SDS011;70537;44.384;0.512;2023-07-28T01:33:08;0.98;;;0.98;;
77788;SDS011;70537;44.384;0.512;2023-07-28T01:35:35;1.60;;;0.95;;
77788;SDS011;70537;44.384;0.512;2023-07-28T01:38:01;1.95;;;0.93;;
77788;SDS011;70537;44.384;0.512;2023-07-28T01:40:26;1.00;;;0.73;;
77788;SDS011;70537;44.384;0.512;2023-07-28T01:42:52;0.98;;;0.90;;
77788;SDS011;70537;44.384;0.512;2023-07-28T01:45:17;0.65;;;0.65;;
77788;SDS011;70537;44.384;0.512;2023-07-28T01:47:43;1.30;;;0.85;;
77788;SDS011;70537;44.384;0.512;2023-07-28T01:50:08;1.15;;;1.15;;
77788;SDS011;70537;44.384;0.512;2023-07-28T01:52:34;0.90;;;0.43;;
77788;SDS011;70537;44.384;0.512;2023-07-28T01:54:59;1.13;;;0.90;;
77788;SDS011;70537;44.384;0.512;2023-07-28T01:57:25;1.55;;;0.98;;
77788;SDS011;70537;44.384;0.512;2023-07-28T01:59:52;1.27;;;1.17;;
77788;SDS011;70537;44.384;0.512;2023-07-28T02:02:18;1.10;;;1.00;;
77788;SDS011;70537;44.384;0.512;2023-07-28T02:04:44;1.00;;;1.00;;
77788;SDS011;70537;44.384;0.512;2023-07-28T02:07:09;1.40;;;1.30;;
77788;SDS011;70537;44.384;0.512;2023-07-28T02:09:35;0.68;;;0.68;;
77788;SDS011;70537;44.384;0.512;2023-07-28T02:12:00;1.35;;;1.25;;
77788;SDS011;70537;44.384;0.512;2023-07-28T02:14:26;2.72;;;0.85;;
77788;SDS011;70537;44.384;0.512;2023-07-28T02:16:51;1.40;;;0.70;;
77788;SDS011;70537;44.384;0.512;2023-07-28T02:19:17;1.10;;;1.10;;
77788;SDS011;70537;44.384;0.512;2023-07-28T02:21:42;1.60;;;1.15;;
77788;SDS011;70537;44.384;0.512;2023-07-28T02:24:08;3.33;;;1.83;;
77788;SDS011;70537;44.384;0.512;2023-07-28T02:26:33;0.80;;;0.77;;
77788;SDS011;70537;44.384;0.512;2023-07-28T02:28:59;1.27;;;1.15;;
77788;SDS011;70537;44.384;0.512;2023-07-28T02:31:24;1.20;;;0.70;;
77788;SDS011;70537;44.384;0.512;2023-07-28T02:33:50;1.98;;;0.93;;
77788;SDS011;70537;44.384;0.512;2023-07-28T02:36:15;1.85;;;1.45;;
77788;SDS011;70537;44.384;0.512;2023-07-28T02:38:41;3.05;;;0.88;;
77788;SDS011;70537;44.384;0.512;2023-07-28T02:41:06;1.10;;;1.00;;
77788;SDS011;70537;44.384;0.512;2023-07-28T02:43:32;1.15;;;1.02;;
77788;SDS011;70537;44.384;0.512;2023-07-28T02:45:57;1.20;;;1.10;;
77788;SDS011;70537;44.384;0.512;2023-07-28T02:48:23;0.90;;;0.90;;
77788;SDS011;70537;44.384;0.512;2023-07-28T02:50:52;1.73;;;1.13;;
77788;SDS011;70537;44.384;0.512;2023-07-28T02:53:18;0.95;;;0.95;;
77788;SDS011;70537;44.384;0.512;2023-07-28T02:55:45;2.00;;;1.27;;
77788;SDS011;70537;44.384;0.512;2023-07-28T02:58:11;2.17;;;0.95;;
77788;SDS011;70537;44.384;0.512;2023-07-28T03:00:38;1.10;;;1.00;;
77788;SDS011;70537;44.384;0.512;2023-07-28T03:03:04;1.17;;;0.70;;
77788;SDS011;70537;44.384;0.512;2023-07-28T03:05:31;1.05;;;0.90;;
77788;SDS011;70537;44.384;0.512;2023-07-28T03:07:56;1.38;;;1.27;;
77788;SDS011;70537;44.384;0.512;2023-07-28T03:10:22;0.90;;;0.90;;
77788;SDS011;70537;44.384;0.512;2023-07-28T03:12:47;1.02;;;0.93;;
77788;SDS011;70537;44.384;0.512;2023-07-28T03:15:13;1.65;;;1.00;;
77788;SDS011;70537;44.384;0.512;2023-07-28T03:17:38;1.08;;;0.90;;
77788;SDS011;70537;44.384;0.512;2023-07-28T03:20:04;2.03;;;0.90;;
77788;SDS011;70537;44.384;0.512;2023-07-28T03:22:30;1.40;;;0.80;;
77788;SDS011;70537;44.384;0.512;2023-07-28T03:24:56;1.25;;;1.17;;
77788;SDS011;70537;44.384;0.512;2023-07-28T03:27:21;1.48;;;1.10;;
77788;SDS011;70537;44.384;0.512;2023-07-28T03:29:47;2.35;;;1.30;;
77788;SDS011;70537;44.384;0.512;2023-07-28T03:32:12;1.15;;;1.00;;
77788;SDS011;70537;44.384;0.512;2023-07-28T03:34:38;0.73;;;0.73;;
77788;SDS011;70537;44.384;0.512;2023-07-28T03:37:03;1.63;;;0.50;;
77788;SDS011;70537;44.384;0.512;2023-07-28T03:39:29;1.35;;;1.00;;
77788;SDS011;70537;44.384;0.512;2023-07-28T03:41:56;1.77;;;1.67;;
77788;SDS011;70537;44.384;0.512;2023-07-28T03:44:22;1.73;;;1.63;;
77788;SDS011;70537;44.384;0.512;2023-07-28T03:46:48;2.67;;;1.00;;
77788;SDS011;70537;44.384;0.512;2023-07-28T03:49:13;1.52;;;0.80;;
77788;SDS011;70537;44.384;0.512;2023-07-28T03:51:39;1.52;;;1.25;;
77788;SDS011;70537;44.384;0.512;2023-07-28T03:54:04;1.30;;;1.20;;
77788;SDS011;70537;44.384;0.512;2023-07-28T03:56:30;1.25;;;1.15;;
77788;SDS011;70537;44.384;0.512;2023-07-28T03:58:55;1.08;;;0.85;;
77788;SDS011;70537;44.384;0.512;2023-07-28T04:01:21;1.33;;;1.23;;
77788;SDS011;70537;44.384;0.512;2023-07-28T04:03:47;1.60;;;1.35;;
77788;SDS011;70537;44.384;0.512;2023-07-28T04:06:13;1.30;;;1.20;;
77788;SDS011;70537;44.384;0.512;2023-07-28T04:08:39;1.15;;;1.05;;
77788;SDS011;70537;44.384;0.512;2023-07-28T04:11:05;0.93;;;0.88;;
77788;SDS011;70537;44.384;0.512;2023-07-28T04:13:30;1.48;;;1.38;;
77788;SDS011;70537;44.384;0.512;2023-07-28T04:15:56;0.70;;;0.70;;
77788;SDS011;70537;44.384;0.512;2023-07-28T04:18:22;1.08;;;0.98;;
77788;SDS011;70537;44.384;0.512;2023-07-28T04:20:48;1.30;;;1.20;;
77788;SDS011;70537;44.384;0.512;2023-07-28T04:23:13;1.27;;;0.95;;
77788;SDS011;70537;44.384;0.512;2023-07-28T04:25:39;1.95;;;0.90;;
77788;SDS011;70537;44.384;0.512;2023-07-28T04:28:04;2.28;;;1.20;;
77788;SDS011;70537;44.384;0.512;2023-07-28T04:30:30;1.02;;;1.02;;
77788;SDS011;70537;44.384;0.512;2023-07-28T04:32:55;1.20;;;1.00;;
77788;SDS011;70537;44.384;0.512;2023-07-28T04:35:21;1.70;;;1.10;;
77788;SDS011;70537;44.384;0.512;2023-07-28T04:37:46;2.00;;;1.00;;
77788;SDS011;70537;44.384;0.512;2023-07-28T04:40:12;1.02;;;1.00;;
77788;SDS011;70537;44.384;0.512;2023-07-28T04:42:38;1.90;;;1.30;;
77788;SDS011;70537;44.384;0.512;2023-07-28T04:45:03;2.53;;;0.98;;
77788;SDS011;70537;44.384;0.512;2023-07-28T04:47:29;2.90;;;1.40;;
77788;SDS011;70537;44.384;0.512;2023-07-28T04:49:55;1.50;;;1.05;;
77788;SDS011;70537;44.384;0.512;2023-07-28T04:52:20;2.58;;;1.00;;
77788;SDS011;70537;44.384;0.512;2023-07-28T04:54:46;3.42;;;1.13;;
77788;SDS011;70537;44.384;0.512;2023-07-28T04:57:11;2.20;;;0.70;;
77788;SDS011;70537;44.384;0.512;2023-07-28T04:59:37;1.50;;;1.40;;
77788;SDS011;70537;44.384;0.512;2023-07-28T05:02:03;1.60;;;1.23;;
77788;SDS011;70537;44.384;0.512;2023-07-28T05:04:28;1.40;;;1.30;;
77788;SDS011;70537;44.384;0.512;2023-07-28T05:06:54;2.72;;;1.25;;
77788;SDS011;70537;44.384;0.512;2023-07-28T05:09:20;2.53;;;1.02;;
77788;SDS011;70537;44.384;0.512;2023-07-28T05:11:45;1.25;;;1.05;;
77788;SDS011;70537;44.384;0.512;2023-07-28T05:14:11;1.52;;;1.25;;
77788;SDS011;70537;44.384;0.512;2023-07-28T05:16:36;5.63;;;1.20;;
77788;SDS011;70537;44.384;0.512;2023-07-28T05:19:03;1.10;;;0.98;;
77788;SDS011;70537;44.384;0.512;2023-07-28T05:21:30;1.10;;;1.08;;
77788;SDS011;70537;44.384;0.512;2023-07-28T05:23:56;1.08;;;0.98;;
77788;SDS011;70537;44.384;0.512;2023-07-28T05:26:21;2.30;;;1.23;;
77788;SDS011;70537;44.384;0.512;2023-07-28T05:28:47;1.13;;;1.10;;
77788;SDS011;70537;44.384;0.512;2023-07-28T05:31:12;2.88;;;1.38;;
77788;SDS011;70537;44.384;0.512;2023-07-28T05:33:40;1.40;;;1.15;;
77788;SDS011;70537;44.384;0.512;2023-07-28T05:36:06;1.40;;;1.30;;
77788;SDS011;70537;44.384;0.512;2023-07-28T05:38:31;1.73;;;1.40;;
77788;SDS011;70537;44.384;0.512;2023-07-28T05:41:00;1.98;;;1.10;;
77788;SDS011;70537;44.384;0.512;2023-07-28T05:43:28;1.20;;;1.05;;
77788;SDS011;70537;44.384;0.512;2023-07-28T05:45:54;3.00;;;1.55;;
77788;SDS011;70537;44.384;0.512;2023-07-28T05:48:21;5.90;;;1.50;;
77788;SDS011;70537;44.384;0.512;2023-07-28T05:50:46;2.00;;;1.10;;
77788;SDS011;70537;44.384;0.512;2023-07-28T05:53:12;2.08;;;1.20;;
77788;SDS011;70537;44.384;0.512;2023-07-28T05:55:38;1.42;;;1.33;;
77788;SDS011;70537;44.384;0.512;2023-07-28T05:58:04;1.83;;;0.93;;
77788;SDS011;70537;44.384;0.512;2023-07-28T06:00:30;1.98;;;1.35;;
77788;SDS011;70537;44.384;0.512;2023-07-28T06:02:56;3.17;;;1.70;;
77788;SDS011;70537;44.384;0.512;2023-07-28T06:05:22;1.38;;;1.27;;
77788;SDS011;70537;44.384;0.512;2023-07-28T06:07:48;1.23;;;1.13;;
77788;SDS011;70537;44.384;0.512;2023-07-28T06:10:13;2.53;;;1.27;;
77788;SDS011;70537;44.384;0.512;2023-07-28T06:12:39;2.88;;;1.42;;
77788;SDS011;70537;44.384;0.512;2023-07-28T06:15:05;1.42;;;1.33;;
77788;SDS011;70537;44.384;0.512;2023-07-28T06:17:31;1.90;;;1.40;;
77788;SDS011;70537;44.384;0.512;2023-07-28T06:19:56;3.35;;;1.05;;
77788;SDS011;70537;44.384;0.512;2023-07-28T06:22:22;1.55;;;1.33;;
77788;SDS011;70537;44.384;0.512;2023-07-28T06:24:47;2.05;;;1.85;;
77788;SDS011;70537;44.384;0.512;2023-07-28T06:27:13;3.85;;;1.60;;
77788;SDS011;70537;44.384;0.512;2023-07-28T06:29:39;2.13;;;1.60;;
77788;SDS011;70537;44.384;0.512;2023-07-28T06:32:05;3.28;;;1.83;;
77788;SDS011;70537;44.384;0.512;2023-07-28T06:34:30;3.20;;;1.40;;
77788;SDS011;70537;44.384;0.512;2023-07-28T06:36:57;1.42;;;1.13;;
77788;SDS011;70537;44.384;0.512;2023-07-28T06:39:23;1.52;;;1.42;;
77788;SDS011;70537;44.384;0.512;2023-07-28T06:41:49;3.15;;;1.67;;
77788;SDS011;70537;44.384;0.512;2023-07-28T06:44:15;1.60;;;1.50;;
77788;SDS011;70537;44.384;0.512;2023-07-28T06:46:41;2.33;;;1.05;;
77788;SDS011;70537;44.384;0.512;2023-07-28T06:49:06;4.57;;;2.17;;
77788;SDS011;70537;44.384;0.512;2023-07-28T06:51:32;2.10;;;1.55;;
77788;SDS011;70537;44.384;0.512;2023-07-28T06:53:58;1.50;;;1.25;;
77788;SDS011;70537;44.384;0.512;2023-07-28T06:56:24;1.35;;;1.15;;
77788;SDS011;70537;44.384;0.512;2023-07-28T06:58:49;11.27;;;1.95;;
77788;SDS011;70537;44.384;0.512;2023-07-28T07:01:15;18.23;;;2.38;;
77788;SDS011;70537;44.384;0.512;2023-07-28T07:03:40;10.45;;;2.40;;
77788;SDS011;70537;44.384;0.512;2023-07-28T07:06:06;6.05;;;2.17;;
77788;SDS011;70537;44.384;0.512;2023-07-28T07:08:31;3.58;;;2.28;;
77788;SDS011;70537;44.384;0.512;2023-07-28T07:10:57;1.80;;;1.70;;
77788;SDS011;70537;44.384;0.512;2023-07-28T07:13:23;2.80;;;2.28;;
77788;SDS011;70537;44.384;0.512;2023-07-28T07:15:48;7.43;;;3.15;;
77788;SDS011;70537;44.384;0.512;2023-07-28T07:18:14;3.38;;;2.33;;
77788;SDS011;70537;44.384;0.512;2023-07-28T07:20:39;5.07;;;1.92;;
77788;SDS011;70537;44.384;0.512;2023-07-28T07:23:05;3.10;;;1.98;;
77788;SDS011;70537;44.384;0.512;2023-07-28T07:25:31;2.13;;;1.92;;
77788;SDS011;70537;44.384;0.512;2023-07-28T07:27:56;3.10;;;2.10;;
77788;SDS011;70537;44.384;0.512;2023-07-28T07:30:22;1.35;;;1.25;;
77788;SDS011;70537;44.384;0.512;2023-07-28T07:32:48;2.13;;;1.80;;
77788;SDS011;70537;44.384;0.512;2023-07-28T07:35:13;4.05;;;2.03;;
77788;SDS011;70537;44.384;0.512;2023-07-28T07:37:39;2.53;;;2.33;;
77788;SDS011;70537;44.384;0.512;2023-07-28T07:40:05;2.10;;;1.90;;
77788;SDS011;70537;44.384;0.512;2023-07-28T07:45:31;2.35;;;2.15;;
77788;SDS011;70537;44.384;0.512;2023-07-28T07:47:57;2.05;;;1.73;;
77788;SDS011;70537;44.384;0.512;2023-07-28T07:50:23;3.00;;;1.88;;
77788;SDS011;70537;44.384;0.512;2023-07-28T07:52:49;2.38;;;2.17;;
77788;SDS011;70537;44.384;0.512;2023-07-28T07:55:14;3.35;;;1.95;;
77788;SDS011;70537;44.384;0.512;2023-07-28T07:57:40;5.88;;;1.73;;
77788;SDS011;70537;44.384;0.512;2023-07-28T08:00:06;2.03;;;1.83;;
77788;SDS011;70537;44.384;0.512;2023-07-28T08:02:32;2.00;;;1.88;;
77788;SDS011;70537;44.384;0.512;2023-07-28T08:04:58;3.45;;;1.85;;
77788;SDS011;70537;44.384;0.512;2023-07-28T08:07:23;2.95;;;2.72;;
77788;SDS011;70537;44.384;0.512;2023-07-28T08:09:49;1.50;;;1.35;;
77788;SDS011;70537;44.384;0.512;2023-07-28T08:12:15;1.70;;;1.58;;
77788;SDS011;70537;44.384;0.512;2023-07-28T08:14:41;1.85;;;1.60;;
77788;SDS011;70537;44.384;0.512;2023-07-28T08:17:07;1.90;;;1.80;;
77788;SDS011;70537;44.384;0.512;2023-07-28T08:19:32;2.50;;;2.05;;
77788;SDS011;70537;44.384;0.512;2023-07-28T08:21:58;2.70;;;1.98;;
77788;SDS011;70537;44.384;0.512;2023-07-28T08:24:23;2.10;;;2.00;;
77788;SDS011;70537;44.384;0.512;2023-07-28T08:26:49;1.80;;;1.52;;
77788;SDS011;70537;44.384;0.512;2023-07-28T08:29:14;1.83;;;1.50;;
77788;SDS011;70537;44.384;0.512;2023-07-28T08:31:40;2.05;;;1.85;;
77788;SDS011;70537;44.384;0.512;2023-07-28T08:34:06;2.97;;;1.73;;
77788;SDS011;70537;44.384;0.512;2023-07-28T08:36:33;2.58;;;1.92;;
77788;SDS011;70537;44.384;0.512;2023-07-28T08:38:59;1.80;;;1.67;;
77788;SDS011;70537;44.384;0.512;2023-07-28T08:41:25;1.80;;;1.52;;
77788;SDS011;70537;44.384;0.512;2023-07-28T08:43:50;2.40;;;1.95;;
77788;SDS011;70537;44.384;0.512;2023-07-28T08:46:17;3.22;;;2.35;;
77788;SDS011;70537;44.384;0.512;2023-07-28T08:48:43;2.67;;;1.92;;
77788;SDS011;70537;44.384;0.512;2023-07-28T08:51:09;3.22;;;2.90;;
77788;SDS011;70537;44.384;0.512;2023-07-28T08:53:37;7.30;;;3.15;;
77788;SDS011;70537;44.384;0.512;2023-07-28T08:56:03;2.75;;;2.28;;
77788;SDS011;70537;44.384;0.512;2023-07-28T08:58:29;4.93;;;1.67;;
77788;SDS011;70537;44.384;0.512;2023-07-28T09:00:55;2.03;;;1.80;;
77788;SDS011;70537;44.384;0.512;2023-07-28T09:03:20;2.40;;;2.20;;
77788;SDS011;70537;44.384;0.512;2023-07-28T09:05:47;2.35;;;1.73;;
77788;SDS011;70537;44.384;0.512;2023-07-28T09:08:13;1.92;;;1.65;;
77788;SDS011;70537;44.384;0.512;2023-07-28T09:10:40;1.67;;;1.58;;
77788;SDS011;70537;44.384;0.512;2023-07-28T09:13:10;1.65;;;1.55;;
77788;SDS011;70537;44.384;0.512;2023-07-28T09:15:37;1.52;;;1.42;;
77788;SDS011;70537;44.384;0.512;2023-07-28T09:18:03;1.65;;;0.98;;
77788;SDS011;70537;44.384;0.512;2023-07-28T09:20:35;1.60;;;1.40;;
77788;SDS011;70537;44.384;0.512;2023-07-28T09:23:02;5.22;;;1.70;;
77788;SDS011;70537;44.384;0.512;2023-07-28T09:25:29;2.15;;;0.90;;
77788;SDS011;70537;44.384;0.512;2023-07-28T09:27:55;2.25;;;1.42;;
77788;SDS011;70537;44.384;0.512;2023-07-28T09:30:21;1.92;;;1.38;;
77788;SDS011;70537;44.384;0.512;2023-07-28T09:35:14;1.63;;;1.52;;
77788;SDS011;70537;44.384;0.512;2023-07-28T09:37:41;1.77;;;1.67;;
77788;SDS011;70537;44.384;0.512;2023-07-28T09:40:10;9.40;;;2.05;;
77788;SDS011;70537;44.384;0.512;2023-07-28T09:42:46;2.33;;;1.70;;
77788;SDS011;70537;44.384;0.512;2023-07-28T09:45:14;1.70;;;1.60;;
77788;SDS011;70537;44.384;0.512;2023-07-28T09:47:42;1.77;;;1.67;;
77788;SDS011;70537;44.384;0.512;2023-07-28T09:50:10;1.48;;;1.38;;
77788;SDS011;70537;44.384;0.512;2023-07-28T09:52:43;1.52;;;1.38;;
77788;SDS011;70537;44.384;0.512;2023-07-28T09:55:11;1.40;;;1.30;;
77788;SDS011;70537;44.384;0.512;2023-07-28T09:57:45;1.60;;;1.50;;
77788;SDS011;70537;44.384;0.512;2023-07-28T10:00:16;1.77;;;1.65;;
77788;SDS011;70537;44.384;0.512;2023-07-28T10:02:42;2.05;;;1.40;;
77788;SDS011;70537;44.384;0.512;2023-07-28T10:05:08;2.40;;;1.80;;
77788;SDS011;70537;44.384;0.512;2023-07-28T10:10:06;1.90;;;1.80;;
77788;SDS011;70537;44.384;0.512;2023-07-28T10:12:40;3.17;;;1.35;;
77788;SDS011;70537;44.384;0.512;2023-07-28T10:15:07;1.48;;;1.00;;
77788;SDS011;70537;44.384;0.512;2023-07-28T10:17:36;1.33;;;1.17;;
77788;SDS011;70537;44.384;0.512;2023-07-28T10:20:05;2.03;;;1.80;;
77788;SDS011;70537;44.384;0.512;2023-07-28T10:22:43;2.92;;;1.70;;
77788;SDS011;70537;44.384;0.512;2023-07-28T10:25:10;2.47;;;1.35;;
77788;SDS011;70537;44.384;0.512;2023-07-28T10:27:43;1.65;;;1.50;;
77788;SDS011;70537;44.384;0.512;2023-07-28T10:30:11;1.63;;;1.52;;
77788;SDS011;70537;44.384;0.512;2023-07-28T10:35:09;4.07;;;1.60;;
77788;SDS011;70537;44.384;0.512;2023-07-28T10:37:48;2.63;;;1.65;;
77788;SDS011;70537;44.384;0.512;2023-07-28T10:40:27;1.98;;;1.55;;
77788;SDS011;70537;44.384;0.512;2023-07-28T10:42:56;2.05;;;1.85;;
77788;SDS011;70537;44.384;0.512;2023-07-28T10:45:23;1.60;;;1.50;;
77788;SDS011;70537;44.384;0.512;2023-07-28T10:47:50;2.75;;;1.88;;
77788;SDS011;70537;44.384;0.512;2023-07-28T10:50:17;1.83;;;1.70;;
77788;SDS011;70537;44.384;0.512;2023-07-28T10:52:44;1.73;;;1.63;;
77788;SDS011;70537;44.384;0.512;2023-07-28T10:55:17;1.77;;;1.60;;
77788;SDS011;70537;44.384;0.512;2023-07-28T10:57:48;2.10;;;1.58;;
77788;SDS011;70537;44.384;0.512;2023-07-28T11:00:17;2.15;;;2.05;;
77788;SDS011;70537;44.384;0.512;2023-07-28T11:02:45;2.10;;;1.90;;
77788;SDS011;70537;44.384;0.512;2023-07-28T11:05:12;1.65;;;1.55;;
77788;SDS011;70537;44.384;0.512;2023-07-28T11:07:43;2.00;;;1.80;;
77788;SDS011;70537;44.384;0.512;2023-07-28T11:10:09;1.92;;;1.52;;
77788;SDS011;70537;44.384;0.512;2023-07-28T11:12:39;2.33;;;1.52;;
77788;SDS011;70537;44.384;0.512;2023-07-28T11:15:07;3.35;;;2.00;;
77788;SDS011;70537;44.384;0.512;2023-07-28T11:17:36;2.42;;;1.75;;
77788;SDS011;70537;44.384;0.512;2023-07-28T11:20:05;2.03;;;1.92;;
77788;SDS011;70537;44.384;0.512;2023-07-28T11:22:42;1.70;;;1.60;;
77788;SDS011;70537;44.384;0.512;2023-07-28T11:25:08;2.10;;;1.58;;
77788;SDS011;70537;44.384;0.512;2023-07-28T11:27:37;1.90;;;1.80;;
77788;SDS011;70537;44.384;0.512;2023-07-28T11:30:03;1.10;;;1.00;;
77788;SDS011;70537;44.384;0.512;2023-07-28T11:32:30;1.67;;;1.48;;
77788;SDS011;70537;44.384;0.512;2023-07-28T11:35:06;2.80;;;2.28;;
77788;SDS011;70537;44.384;0.512;2023-07-28T11:37:34;1.30;;;1.20;;
77788;SDS011;70537;44.384;0.512;2023-07-28T11:40:04;2.97;;;1.77;;
77788;SDS011;70537;44.384;0.512;2023-07-28T11:42:39;1.63;;;1.38;;
77788;SDS011;70537;44.384;0.512;2023-07-28T11:47:35;1.45;;;1.35;;
77788;SDS011;70537;44.384;0.512;2023-07-28T11:50:01;1.63;;;1.52;;
77788;SDS011;70537;44.384;0.512;2023-07-28T11:52:34;1.85;;;1.60;;
77788;SDS011;70537;44.384;0.512;2023-07-28T11:55:01;2.13;;;1.98;;
77788;SDS011;70537;44.384;0.512;2023-07-28T11:57:29;2.17;;;1.63;;
77788;SDS011;70537;44.384;0.512;2023-07-28T11:59:56;2.15;;;1.40;;
77788;SDS011;70537;44.384;0.512;2023-07-28T12:02:25;2.33;;;2.13;;
77788;SDS011;70537;44.384;0.512;2023-07-28T12:04:51;1.50;;;1.40;;
77788;SDS011;70537;44.384;0.512;2023-07-28T12:07:20;2.45;;;1.73;;
77788;SDS011;70537;44.384;0.512;2023-07-28T12:09:53;1.98;;;1.75;;
77788;SDS011;70537;44.384;0.512;2023-07-28T12:12:29;2.22;;;1.80;;
77788;SDS011;70537;44.384;0.512;2023-07-28T12:14:59;2.17;;;1.98;;
77788;SDS011;70537;44.384;0.512;2023-07-28T12:19:59;2.28;;;1.67;;
77788;SDS011;70537;44.384;0.512;2023-07-28T12:22:39;3.40;;;1.80;;
77788;SDS011;70537;44.384;0.512;2023-07-28T12:25:07;2.50;;;1.80;;
77788;SDS011;70537;44.384;0.512;2023-07-28T12:27:33;1.33;;;1.23;;
77788;SDS011;70537;44.384;0.512;2023-07-28T12:30:00;1.88;;;1.77;;
77788;SDS011;70537;44.384;0.512;2023-07-28T12:32:27;2.17;;;1.63;;
77788;SDS011;70537;44.384;0.512;2023-07-28T12:34:53;2.05;;;1.55;;
77788;SDS011;70537;44.384;0.512;2023-07-28T12:37:19;2.03;;;1.92;;
77788;SDS011;70537;44.384;0.512;2023-07-28T12:39:46;1.95;;;1.75;;
77788;SDS011;70537;44.384;0.512;2023-07-28T12:42:13;1.50;;;1.40;;
77788;SDS011;70537;44.384;0.512;2023-07-28T12:44:40;1.73;;;1.63;;
77788;SDS011;70537;44.384;0.512;2023-07-28T12:47:06;2.25;;;1.95;;
77788;SDS011;70537;44.384;0.512;2023-07-28T12:49:33;1.30;;;1.17;;
77788;SDS011;70537;44.384;0.512;2023-07-28T12:52:03;2.00;;;1.90;;
77788;SDS011;70537;44.384;0.512;2023-07-28T12:54:32;3.42;;;1.60;;
77788;SDS011;70537;44.384;0.512;2023-07-28T12:56:57;1.90;;;1.48;;
77788;SDS011;70537;44.384;0.512;2023-07-28T12:59:23;1.83;;;1.73;;
77788;SDS011;70537;44.384;0.512;2023-07-28T13:01:48;2.47;;;2.13;;
77788;SDS011;70537;44.384;0.512;2023-07-28T13:04:14;2.75;;;1.60;;
77788;SDS011;70537;44.384;0.512;2023-07-28T13:06:39;1.48;;;1.38;;
77788;SDS011;70537;44.384;0.512;2023-07-28T13:09:06;2.13;;;1.58;;
77788;SDS011;70537;44.384;0.512;2023-07-28T13:11:33;2.10;;;1.67;;
77788;SDS011;70537;44.384;0.512;2023-07-28T13:14:01;1.60;;;1.30;;
77788;SDS011;70537;44.384;0.512;2023-07-28T13:16:27;1.80;;;1.45;;
77788;SDS011;70537;44.384;0.512;2023-07-28T13:18:53;2.35;;;1.70;;
77788;SDS011;70537;44.384;0.512;2023-07-28T13:21:19;1.67;;;1.58;;
77788;SDS011;70537;44.384;0.512;2023-07-28T13:23:44;1.50;;;1.40;;
77788;SDS011;70537;44.384;0.512;2023-07-28T13:26:10;3.28;;;1.55;;
77788;SDS011;70537;44.384;0.512;2023-07-28T13:28:35;2.33;;;1.55;;
77788;SDS011;70537;44.384;0.512;2023-07-28T13:31:02;2.50;;;1.50;;
77788;SDS011;70537;44.384;0.512;2023-07-28T13:33:28;1.83;;;1.63;;
77788;SDS011;70537;44.384;0.512;2023-07-28T13:35:54;1.60;;;0.73;;
77788;SDS011;70537;44.384;0.512;2023-07-28T13:38:19;2.47;;;1.80;;
77788;SDS011;70537;44.384;0.512;2023-07-28T13:40:45;2.00;;;1.50;;
77788;SDS011;70537;44.384;0.512;2023-07-28T13:43:10;1.90;;;1.80;;
77788;SDS011;70537;44.384;0.512;2023-07-28T13:45:36;2.25;;;2.05;;
77788;SDS011;70537;44.384;0.512;2023-07-28T13:48:02;1.77;;;1.65;;
77788;SDS011;70537;44.384;0.512;2023-07-28T13:50:28;1.70;;;1.60;;
77788;SDS011;70537;44.384;0.512;2023-07-28T13:52:53;2.25;;;1.67;;
77788;SDS011;70537;44.384;0.512;2023-07-28T13:55:19;1.80;;;1.70;;
77788;SDS011;70537;44.384;0.512;2023-07-28T13:57:44;1.38;;;1.17;;
77788;SDS011;70537;44.384;0.512;2023-07-28T14:00:11;1.85;;;1.70;;
77788;SDS011;70537;44.384;0.512;2023-07-28T14:02:37;1.80;;;1.70;;
77788;SDS011;70537;44.384;0.512;2023-07-28T14:05:05;2.17;;;1.55;;
77788;SDS011;70537;44.384;0.512;2023-07-28T14:07:31;1.70;;;1.60;;
77788;SDS011;70537;44.384;0.512;2023-07-28T14:09:57;1.88;;;1.65;;
77788;SDS011;70537;44.384;0.512;2023-07-28T14:12:22;1.95;;;1.65;;
77788;SDS011;70537;44.384;0.512;2023-07-28T14:14:48;1.40;;;1.30;;
77788;SDS011;70537;44.384;0.512;2023-07-28T14:17:16;2.20;;;1.70;;
77788;SDS011;70537;44.384;0.512;2023-07-28T14:19:42;1.42;;;0.88;;
77788;SDS011;70537;44.384;0.512;2023-07-28T14:22:08;1.80;;;1.70;;
77788;SDS011;70537;44.384;0.512;2023-07-28T14:24:33;1.75;;;1.65;;
77788;SDS011;70537;44.384;0.512;2023-07-28T14:26:59;1.55;;;1.45;;
77788;SDS011;70537;44.384;0.512;2023-07-28T14:29:24;1.90;;;1.40;;
77788;SDS011;70537;44.384;0.512;2023-07-28T14:31:50;1.77;;;1.67;;
77788;SDS011;70537;44.384;0.512;2023-07-28T14:34:16;1.83;;;1.73;;
77788;SDS011;70537;44.384;0.512;2023-07-28T14:36:41;1.55;;;1.45;;
77788;SDS011;70537;44.384;0.512;2023-07-28T14:39:07;2.03;;;1.70;;
77788;SDS011;70537;44.384;0.512;2023-07-28T14:41:34;3.38;;;1.67;;
77788;SDS011;70537;44.384;0.512;2023-07-28T14:44:00;2.30;;;2.10;;
77788;SDS011;70537;44.384;0.512;2023-07-28T14:46:25;1.80;;;1.67;;
77788;SDS011;70537;44.384;0.512;2023-07-28T14:48:51;1.80;;;1.70;;
77788;SDS011;70537;44.384;0.512;2023-07-28T14:51:17;2.25;;;2.13;;
77788;SDS011;70537;44.384;0.512;2023-07-28T14:53:43;1.73;;;1.63;;
77788;SDS011;70537;44.384;0.512;2023-07-28T14:56:10;1.00;;;1.00;;
77788;SDS011;70537;44.384;0.512;2023-07-28T14:58:36;2.15;;;1.95;;
77788;SDS011;70537;44.384;0.512;2023-07-28T15:01:02;1.55;;;1.45;;
77788;SDS011;70537;44.384;0.512;2023-07-28T15:03:30;1.98;;;1.88;;
77788;SDS011;70537;44.384;0.512;2023-07-28T15:05:58;3.55;;;1.65;;
77788;SDS011;70537;44.384;0.512;2023-07-28T15:08:25;4.40;;;3.38;;